sensor_id;sensor_type;location;lat;lon;timestamp;P1;durP1;ratioP1;P2;durP2;ratioP2
58470;SDS011;44258;51.288;12.068;2023-03-14T00:02:13;3.75;;;1.20;;
58470;SDS011;44258;51.288;12.068;2023-03-14T00:04:42;2.80;;;1.08;;
58470;SDS011;44258;51.288;12.068;2023-03-14T00:07:09;7.93;;;1.65;;
58470;SDS011;44258;51.288;12.068;2023-03-14T00:09:36;1.25;;;0.75;;
58470;SDS011;44258;51.288;12.068;2023-03-14T00:12:04;2.08;;;0.90;;
58470;SDS011;44258;51.288;12.068;2023-03-14T00:14:32;3.83;;;0.90;;
58470;SDS011;44258;51.288;12.068;2023-03-14T00:17:00;1.60;;;0.77;;
58470;SDS011;44258;51.288;12.068;2023-03-14T00:19:27;1.63;;;1.00;;
58470;SDS011;44258;51.288;12.068;2023-03-14T00:21:56;2.38;;;0.82;;
58470;SDS011;44258;51.288;12.068;2023-03-14T00:24:23;0.60;;;0.50;;
58470;SDS011;44258;51.288;12.068;2023-03-14T00:26:49;1.30;;;0.80;;
58470;SDS011;44258;51.288;12.068;2023-03-14T00:29:16;1.73;;;0.80;;
58470;SDS011;44258;51.288;12.068;2023-03-14T00:31:43;1.60;;;0.73;;
58470;SDS011;44258;51.288;12.068;2023-03-14T00:34:12;2.67;;;1.00;;
58470;SDS011;44258;51.288;12.068;2023-03-14T00:36:39;1.48;;;0.70;;
58470;SDS011;44258;51.288;12.068;2023-03-14T00:39:05;1.92;;;0.80;;
58470;SDS011;44258;51.288;12.068;2023-03-14T00:41:32;1.80;;;0.80;;
58470;SDS011;44258;51.288;12.068;2023-03-14T00:43:59;1.75;;;0.68;;
58470;SDS011;44258;51.288;12.068;2023-03-14T00:46:26;1.35;;;0.60;;
58470;SDS011;44258;51.288;12.068;2023-03-14T00:48:52;1.90;;;0.80;;
58470;SDS011;44258;51.288;12.068;2023-03-14T00:51:20;1.13;;;0.60;;
58470;SDS011;44258;51.288;12.068;2023-03-14T00:53:48;1.38;;;0.73;;
58470;SDS011;44258;51.288;12.068;2023-03-14T00:56:14;1.27;;;0.57;;
58470;SDS011;44258;51.288;12.068;2023-03-14T00:58:41;2.05;;;0.70;;
58470;SDS011;44258;51.288;12.068;2023-03-14T01:01:09;1.63;;;0.70;;
58470;SDS011;44258;51.288;12.068;2023-03-14T01:03:37;1.38;;;0.60;;
58470;SDS011;44258;51.288;12.068;2023-03-14T01:06:08;0.75;;;0.68;;
58470;SDS011;44258;51.288;12.068;2023-03-14T01:08:38;1.05;;;0.60;;
58470;SDS011;44258;51.288;12.068;2023-03-14T01:11:06;1.58;;;0.70;;
58470;SDS011;44258;51.288;12.068;2023-03-14T01:13:37;1.45;;;0.70;;
58470;SDS011;44258;51.288;12.068;2023-03-14T01:16:05;1.33;;;0.60;;
58470;SDS011;44258;51.288;12.068;2023-03-14T01:18:35;1.73;;;0.80;;
58470;SDS011;44258;51.288;12.068;2023-03-14T01:21:03;2.55;;;0.70;;
58470;SDS011;44258;51.288;12.068;2023-03-14T01:23:38;1.08;;;0.65;;
58470;SDS011;44258;51.288;12.068;2023-03-14T01:26:07;1.08;;;0.65;;
58470;SDS011;44258;51.288;12.068;2023-03-14T01:28:35;1.70;;;0.80;;
58470;SDS011;44258;51.288;12.068;2023-03-14T01:31:02;2.13;;;0.60;;
58470;SDS011;44258;51.288;12.068;2023-03-14T01:33:30;2.05;;;0.60;;
58470;SDS011;44258;51.288;12.068;2023-03-14T01:35:57;1.27;;;0.70;;
58470;SDS011;44258;51.288;12.068;2023-03-14T01:38:25;1.58;;;0.90;;
58470;SDS011;44258;51.288;12.068;2023-03-14T01:40:53;2.00;;;0.80;;
58470;SDS011;44258;51.288;12.068;2023-03-14T01:43:20;1.25;;;0.77;;
58470;SDS011;44258;51.288;12.068;2023-03-14T01:46:06;1.52;;;0.73;;
58470;SDS011;44258;51.288;12.068;2023-03-14T01:48:48;2.63;;;0.60;;
58470;SDS011;44258;51.288;12.068;2023-03-14T01:51:21;2.33;;;0.90;;
58470;SDS011;44258;51.288;12.068;2023-03-14T01:53:52;2.50;;;0.90;;
58470;SDS011;44258;51.288;12.068;2023-03-14T01:56:23;2.40;;;0.70;;
58470;SDS011;44258;51.288;12.068;2023-03-14T01:58:50;1.33;;;0.70;;
58470;SDS011;44258;51.288;12.068;2023-03-14T02:01:19;1.02;;;0.70;;
58470;SDS011;44258;51.288;12.068;2023-03-14T02:03:52;2.58;;;0.80;;
58470;SDS011;44258;51.288;12.068;2023-03-14T02:06:23;2.05;;;0.60;;
58470;SDS011;44258;51.288;12.068;2023-03-14T02:08:52;1.42;;;0.52;;
58470;SDS011;44258;51.288;12.068;2023-03-14T02:11:20;1.13;;;0.70;;
58470;SDS011;44258;51.288;12.068;2023-03-14T02:13:49;1.80;;;0.80;;
58470;SDS011;44258;51.288;12.068;2023-03-14T02:16:16;1.45;;;0.63;;
58470;SDS011;44258;51.288;12.068;2023-03-14T02:18:43;1.98;;;0.90;;
58470;SDS011;44258;51.288;12.068;2023-03-14T02:21:12;1.35;;;0.60;;
58470;SDS011;44258;51.288;12.068;2023-03-14T02:23:46;3.15;;;0.90;;
58470;SDS011;44258;51.288;12.068;2023-03-14T02:26:20;1.95;;;0.60;;
58470;SDS011;44258;51.288;12.068;2023-03-14T02:28:51;2.25;;;0.88;;
58470;SDS011;44258;51.288;12.068;2023-03-14T02:31:21;1.67;;;0.70;;
58470;SDS011;44258;51.288;12.068;2023-03-14T02:33:49;1.10;;;0.55;;
58470;SDS011;44258;51.288;12.068;2023-03-14T02:36:17;2.13;;;0.70;;
58470;SDS011;44258;51.288;12.068;2023-03-14T02:38:51;2.00;;;0.75;;
58470;SDS011;44258;51.288;12.068;2023-03-14T02:41:21;1.13;;;0.70;;
58470;SDS011;44258;51.288;12.068;2023-03-14T02:43:48;1.30;;;0.77;;
58470;SDS011;44258;51.288;12.068;2023-03-14T02:46:19;2.50;;;0.90;;
58470;SDS011;44258;51.288;12.068;2023-03-14T02:48:47;1.40;;;0.70;;
58470;SDS011;44258;51.288;12.068;2023-03-14T02:51:17;1.60;;;0.70;;
58470;SDS011;44258;51.288;12.068;2023-03-14T02:53:45;1.10;;;0.82;;
58470;SDS011;44258;51.288;12.068;2023-03-14T02:56:13;2.47;;;0.75;;
58470;SDS011;44258;51.288;12.068;2023-03-14T02:58:40;1.20;;;0.70;;
58470;SDS011;44258;51.288;12.068;2023-03-14T03:01:08;1.65;;;0.73;;
58470;SDS011;44258;51.288;12.068;2023-03-14T03:03:34;1.63;;;0.73;;
58470;SDS011;44258;51.288;12.068;2023-03-14T03:06:01;2.08;;;0.85;;
58470;SDS011;44258;51.288;12.068;2023-03-14T03:08:28;1.95;;;0.73;;
58470;SDS011;44258;51.288;12.068;2023-03-14T03:10:56;2.45;;;0.68;;
58470;SDS011;44258;51.288;12.068;2023-03-14T03:13:23;2.45;;;0.93;;
58470;SDS011;44258;51.288;12.068;2023-03-14T03:15:50;2.05;;;0.80;;
58470;SDS011;44258;51.288;12.068;2023-03-14T03:18:19;2.83;;;0.73;;
58470;SDS011;44258;51.288;12.068;2023-03-14T03:20:47;1.30;;;0.80;;
58470;SDS011;44258;51.288;12.068;2023-03-14T03:23:16;3.17;;;0.63;;
58470;SDS011;44258;51.288;12.068;2023-03-14T03:25:47;2.33;;;0.60;;
58470;SDS011;44258;51.288;12.068;2023-03-14T03:28:15;3.03;;;0.52;;
58470;SDS011;44258;51.288;12.068;2023-03-14T03:30:43;3.63;;;0.73;;
58470;SDS011;44258;51.288;12.068;2023-03-14T03:33:10;3.67;;;0.80;;
58470;SDS011;44258;51.288;12.068;2023-03-14T03:35:43;1.77;;;0.70;;
58470;SDS011;44258;51.288;12.068;2023-03-14T03:38:11;2.67;;;0.70;;
58470;SDS011;44258;51.288;12.068;2023-03-14T03:40:38;1.00;;;0.73;;
58470;SDS011;44258;51.288;12.068;2023-03-14T03:43:05;3.85;;;0.85;;
58470;SDS011;44258;51.288;12.068;2023-03-14T03:45:32;2.28;;;0.63;;
58470;SDS011;44258;51.288;12.068;2023-03-14T03:47:59;2.67;;;0.73;;
58470;SDS011;44258;51.288;12.068;2023-03-14T03:50:27;3.67;;;0.90;;
58470;SDS011;44258;51.288;12.068;2023-03-14T03:52:55;3.28;;;0.98;;
58470;SDS011;44258;51.288;12.068;2023-03-14T03:55:22;1.17;;;0.70;;
58470;SDS011;44258;51.288;12.068;2023-03-14T03:57:53;4.30;;;1.13;;
58470;SDS011;44258;51.288;12.068;2023-03-14T04:00:20;3.85;;;0.90;;
58470;SDS011;44258;51.288;12.068;2023-03-14T04:02:47;3.30;;;1.05;;
58470;SDS011;44258;51.288;12.068;2023-03-14T04:05:14;4.15;;;1.33;;
58470;SDS011;44258;51.288;12.068;2023-03-14T04:07:41;3.08;;;1.02;;
58470;SDS011;44258;51.288;12.068;2023-03-14T04:10:09;3.67;;;1.30;;
58470;SDS011;44258;51.288;12.068;2023-03-14T04:12:37;1.17;;;0.85;;
58470;SDS011;44258;51.288;12.068;2023-03-14T04:15:07;3.00;;;1.05;;
58470;SDS011;44258;51.288;12.068;2023-03-14T04:17:35;4.90;;;1.40;;
58470;SDS011;44258;51.288;12.068;2023-03-14T04:20:02;3.88;;;1.40;;
58470;SDS011;44258;51.288;12.068;2023-03-14T04:22:30;5.25;;;1.20;;
58470;SDS011;44258;51.288;12.068;2023-03-14T04:25:01;3.35;;;1.25;;
58470;SDS011;44258;51.288;12.068;2023-03-14T04:27:29;3.45;;;1.38;;
58470;SDS011;44258;51.288;12.068;2023-03-14T04:29:56;2.83;;;1.15;;
58470;SDS011;44258;51.288;12.068;2023-03-14T04:32:29;4.65;;;1.33;;
58470;SDS011;44258;51.288;12.068;2023-03-14T04:34:56;2.65;;;0.90;;
58470;SDS011;44258;51.288;12.068;2023-03-14T04:37:23;7.82;;;1.25;;
58470;SDS011;44258;51.288;12.068;2023-03-14T04:39:50;3.83;;;1.20;;
58470;SDS011;44258;51.288;12.068;2023-03-14T04:42:18;4.97;;;1.20;;
58470;SDS011;44258;51.288;12.068;2023-03-14T04:44:47;4.80;;;1.40;;
58470;SDS011;44258;51.288;12.068;2023-03-14T04:47:16;3.95;;;1.80;;
58470;SDS011;44258;51.288;12.068;2023-03-14T04:49:43;7.07;;;1.77;;
58470;SDS011;44258;51.288;12.068;2023-03-14T04:52:09;4.47;;;1.45;;
58470;SDS011;44258;51.288;12.068;2023-03-14T04:54:36;4.28;;;1.83;;
58470;SDS011;44258;51.288;12.068;2023-03-14T04:57:03;4.10;;;1.50;;
58470;SDS011;44258;51.288;12.068;2023-03-14T04:59:33;5.70;;;1.98;;
58470;SDS011;44258;51.288;12.068;2023-03-14T05:02:02;4.65;;;1.40;;
58470;SDS011;44258;51.288;12.068;2023-03-14T05:04:29;4.18;;;1.33;;
58470;SDS011;44258;51.288;12.068;2023-03-14T05:06:57;4.70;;;1.60;;
58470;SDS011;44258;51.288;12.068;2023-03-14T05:09:26;7.72;;;1.77;;
58470;SDS011;44258;51.288;12.068;2023-03-14T05:11:53;6.43;;;1.88;;
58470;SDS011;44258;51.288;12.068;2023-03-14T05:14:23;5.20;;;1.40;;
58470;SDS011;44258;51.288;12.068;2023-03-14T05:16:50;8.70;;;1.77;;
58470;SDS011;44258;51.288;12.068;2023-03-14T05:19:18;5.60;;;1.40;;
58470;SDS011;44258;51.288;12.068;2023-03-14T05:21:44;5.03;;;1.40;;
58470;SDS011;44258;51.288;12.068;2023-03-14T05:24:11;6.38;;;1.35;;
58470;SDS011;44258;51.288;12.068;2023-03-14T05:26:38;6.40;;;2.00;;
58470;SDS011;44258;51.288;12.068;2023-03-14T05:29:04;6.50;;;1.45;;
58470;SDS011;44258;51.288;12.068;2023-03-14T05:31:31;4.40;;;1.05;;
58470;SDS011;44258;51.288;12.068;2023-03-14T05:33:58;2.50;;;1.20;;
58470;SDS011;44258;51.288;12.068;2023-03-14T05:36:29;4.35;;;1.10;;
58470;SDS011;44258;51.288;12.068;2023-03-14T05:38:56;7.40;;;1.23;;
58470;SDS011;44258;51.288;12.068;2023-03-14T05:41:22;3.92;;;1.02;;
58470;SDS011;44258;51.288;12.068;2023-03-14T05:43:49;3.75;;;1.40;;
58470;SDS011;44258;51.288;12.068;2023-03-14T05:46:16;5.05;;;1.50;;
58470;SDS011;44258;51.288;12.068;2023-03-14T05:48:43;2.30;;;1.08;;
58470;SDS011;44258;51.288;12.068;2023-03-14T05:51:09;3.50;;;1.42;;
58470;SDS011;44258;51.288;12.068;2023-03-14T05:53:38;7.18;;;1.40;;
58470;SDS011;44258;51.288;12.068;2023-03-14T05:56:05;3.67;;;1.30;;
58470;SDS011;44258;51.288;12.068;2023-03-14T05:58:32;4.28;;;1.35;;
58470;SDS011;44258;51.288;12.068;2023-03-14T06:01:01;5.43;;;1.25;;
58470;SDS011;44258;51.288;12.068;2023-03-14T06:03:28;6.47;;;1.30;;
58470;SDS011;44258;51.288;12.068;2023-03-14T06:05:55;3.83;;;1.17;;
58470;SDS011;44258;51.288;12.068;2023-03-14T06:08:22;6.30;;;1.30;;
58470;SDS011;44258;51.288;12.068;2023-03-14T06:10:52;7.18;;;2.17;;
58470;SDS011;44258;51.288;12.068;2023-03-14T06:13:19;5.15;;;1.00;;
58470;SDS011;44258;51.288;12.068;2023-03-14T06:15:46;3.85;;;1.40;;
58470;SDS011;44258;51.288;12.068;2023-03-14T06:18:12;4.50;;;1.20;;
58470;SDS011;44258;51.288;12.068;2023-03-14T06:20:40;5.70;;;1.20;;
58470;SDS011;44258;51.288;12.068;2023-03-14T06:23:07;4.00;;;1.17;;
58470;SDS011;44258;51.288;12.068;2023-03-14T06:25:35;1.85;;;1.08;;
58470;SDS011;44258;51.288;12.068;2023-03-14T06:28:04;4.25;;;1.08;;
58470;SDS011;44258;51.288;12.068;2023-03-14T06:30:31;3.88;;;1.23;;
58470;SDS011;44258;51.288;12.068;2023-03-14T06:32:59;4.55;;;1.33;;
58470;SDS011;44258;51.288;12.068;2023-03-14T06:35:25;4.38;;;1.08;;
58470;SDS011;44258;51.288;12.068;2023-03-14T06:37:52;2.08;;;1.00;;
58470;SDS011;44258;51.288;12.068;2023-03-14T06:40:19;5.78;;;0.98;;
58470;SDS011;44258;51.288;12.068;2023-03-14T06:42:46;3.47;;;1.00;;
58470;SDS011;44258;51.288;12.068;2023-03-14T06:45:15;2.65;;;1.10;;
58470;SDS011;44258;51.288;12.068;2023-03-14T06:47:42;2.20;;;0.80;;
58470;SDS011;44258;51.288;12.068;2023-03-14T06:50:09;5.80;;;1.45;;
58470;SDS011;44258;51.288;12.068;2023-03-14T06:52:36;5.97;;;1.10;;
58470;SDS011;44258;51.288;12.068;2023-03-14T06:55:06;4.03;;;1.20;;
58470;SDS011;44258;51.288;12.068;2023-03-14T06:57:34;3.88;;;1.13;;
58470;SDS011;44258;51.288;12.068;2023-03-14T07:00:01;4.95;;;1.15;;
58470;SDS011;44258;51.288;12.068;2023-03-14T07:02:32;3.40;;;1.30;;
58470;SDS011;44258;51.288;12.068;2023-03-14T07:04:58;4.40;;;1.40;;
58470;SDS011;44258;51.288;12.068;2023-03-14T07:07:25;6.78;;;1.35;;
58470;SDS011;44258;51.288;12.068;2023-03-14T07:09:52;5.47;;;1.10;;
58470;SDS011;44258;51.288;12.068;2023-03-14T07:12:19;5.75;;;1.33;;
58470;SDS011;44258;51.288;12.068;2023-03-14T07:14:45;3.38;;;0.90;;
58470;SDS011;44258;51.288;12.068;2023-03-14T07:17:12;4.25;;;0.98;;
58470;SDS011;44258;51.288;12.068;2023-03-14T07:19:41;4.10;;;1.20;;
58470;SDS011;44258;51.288;12.068;2023-03-14T07:22:08;5.55;;;1.83;;
58470;SDS011;44258;51.288;12.068;2023-03-14T07:24:34;4.15;;;1.10;;
58470;SDS011;44258;51.288;12.068;2023-03-14T07:27:01;3.70;;;1.13;;
58470;SDS011;44258;51.288;12.068;2023-03-14T07:29:27;5.93;;;1.30;;
58470;SDS011;44258;51.288;12.068;2023-03-14T07:31:54;5.30;;;1.73;;
58470;SDS011;44258;51.288;12.068;2023-03-14T07:34:21;3.83;;;1.30;;
58470;SDS011;44258;51.288;12.068;2023-03-14T07:36:49;8.20;;;1.42;;
58470;SDS011;44258;51.288;12.068;2023-03-14T07:39:16;3.40;;;1.00;;
58470;SDS011;44258;51.288;12.068;2023-03-14T07:41:43;5.38;;;1.10;;
58470;SDS011;44258;51.288;12.068;2023-03-14T07:44:10;5.03;;;1.48;;
58470;SDS011;44258;51.288;12.068;2023-03-14T07:46:37;3.97;;;0.65;;
58470;SDS011;44258;51.288;12.068;2023-03-14T07:49:04;5.93;;;1.25;;
58470;SDS011;44258;51.288;12.068;2023-03-14T07:51:30;6.28;;;1.60;;
58470;SDS011;44258;51.288;12.068;2023-03-14T07:53:58;3.60;;;1.15;;
58470;SDS011;44258;51.288;12.068;2023-03-14T07:56:26;4.68;;;1.45;;
58470;SDS011;44258;51.288;12.068;2023-03-14T07:58:52;4.82;;;1.17;;
58470;SDS011;44258;51.288;12.068;2023-03-14T08:01:19;4.25;;;1.30;;
58470;SDS011;44258;51.288;12.068;2023-03-14T08:03:46;5.28;;;1.30;;
58470;SDS011;44258;51.288;12.068;2023-03-14T08:06:12;3.97;;;1.13;;
58470;SDS011;44258;51.288;12.068;2023-03-14T08:08:39;1.95;;;0.73;;
58470;SDS011;44258;51.288;12.068;2023-03-14T08:11:07;4.65;;;1.33;;
58470;SDS011;44258;51.288;12.068;2023-03-14T08:13:35;3.28;;;1.13;;
58470;SDS011;44258;51.288;12.068;2023-03-14T08:16:03;4.60;;;1.65;;
58470;SDS011;44258;51.288;12.068;2023-03-14T08:18:30;4.22;;;1.27;;
58470;SDS011;44258;51.288;12.068;2023-03-14T08:21:00;4.50;;;1.50;;
58470;SDS011;44258;51.288;12.068;2023-03-14T08:23:27;4.82;;;1.10;;
58470;SDS011;44258;51.288;12.068;2023-03-14T08:25:53;7.05;;;1.88;;
58470;SDS011;44258;51.288;12.068;2023-03-14T08:28:21;1.75;;;0.85;;
58470;SDS011;44258;51.288;12.068;2023-03-14T08:30:48;3.17;;;1.20;;
58470;SDS011;44258;51.288;12.068;2023-03-14T08:33:15;5.57;;;1.50;;
58470;SDS011;44258;51.288;12.068;2023-03-14T08:35:42;6.72;;;1.10;;
58470;SDS011;44258;51.288;12.068;2023-03-14T08:38:09;1.65;;;0.65;;
58470;SDS011;44258;51.288;12.068;2023-03-14T08:40:35;2.35;;;0.70;;
58470;SDS011;44258;51.288;12.068;2023-03-14T08:43:02;4.55;;;1.45;;
58470;SDS011;44258;51.288;12.068;2023-03-14T08:45:30;3.63;;;1.25;;
58470;SDS011;44258;51.288;12.068;2023-03-14T08:47:57;2.05;;;0.80;;
58470;SDS011;44258;51.288;12.068;2023-03-14T08:50:24;3.33;;;0.95;;
58470;SDS011;44258;51.288;12.068;2023-03-14T08:52:50;2.47;;;1.00;;
58470;SDS011;44258;51.288;12.068;2023-03-14T08:55:17;2.83;;;0.80;;
58470;SDS011;44258;51.288;12.068;2023-03-14T08:57:45;2.50;;;0.70;;
58470;SDS011;44258;51.288;12.068;2023-03-14T09:00:12;2.03;;;0.98;;
58470;SDS011;44258;51.288;12.068;2023-03-14T09:02:41;3.10;;;1.20;;
58470;SDS011;44258;51.288;12.068;2023-03-14T09:05:08;4.50;;;1.42;;
58470;SDS011;44258;51.288;12.068;2023-03-14T09:07:36;4.90;;;1.55;;
58470;SDS011;44258;51.288;12.068;2023-03-14T09:10:03;2.75;;;1.20;;
58470;SDS011;44258;51.288;12.068;2023-03-14T09:12:30;4.07;;;0.95;;
58470;SDS011;44258;51.288;12.068;2023-03-14T09:14:57;1.77;;;0.40;;
58470;SDS011;44258;51.288;12.068;2023-03-14T09:17:24;3.97;;;0.80;;
58470;SDS011;44258;51.288;12.068;2023-03-14T09:19:52;1.33;;;0.60;;
58470;SDS011;44258;51.288;12.068;2023-03-14T09:22:19;2.03;;;0.70;;
58470;SDS011;44258;51.288;12.068;2023-03-14T09:24:46;1.70;;;0.60;;
58470;SDS011;44258;51.288;12.068;2023-03-14T09:27:13;5.35;;;0.85;;
58470;SDS011;44258;51.288;12.068;2023-03-14T09:29:40;3.35;;;1.08;;
58470;SDS011;44258;51.288;12.068;2023-03-14T09:32:06;2.90;;;0.60;;
58470;SDS011;44258;51.288;12.068;2023-03-14T09:34:34;2.53;;;0.80;;
58470;SDS011;44258;51.288;12.068;2023-03-14T09:37:02;3.65;;;0.70;;
58470;SDS011;44258;51.288;12.068;2023-03-14T09:39:30;2.90;;;0.60;;
58470;SDS011;44258;51.288;12.068;2023-03-14T09:41:56;1.10;;;0.57;;
58470;SDS011;44258;51.288;12.068;2023-03-14T09:44:29;3.17;;;1.02;;
58470;SDS011;44258;51.288;12.068;2023-03-14T09:46:59;6.25;;;0.70;;
58470;SDS011;44258;51.288;12.068;2023-03-14T09:49:29;2.53;;;0.70;;
58470;SDS011;44258;51.288;12.068;2023-03-14T09:51:58;2.20;;;0.70;;
58470;SDS011;44258;51.288;12.068;2023-03-14T09:54:31;2.50;;;0.73;;
58470;SDS011;44258;51.288;12.068;2023-03-14T09:57:00;2.60;;;0.60;;
58470;SDS011;44258;51.288;12.068;2023-03-14T09:59:29;2.83;;;0.77;;
58470;SDS011;44258;51.288;12.068;2023-03-14T10:01:57;2.50;;;1.25;;
58470;SDS011;44258;51.288;12.068;2023-03-14T10:04:26;2.03;;;0.70;;
58470;SDS011;44258;51.288;12.068;2023-03-14T10:06:55;2.05;;;0.70;;
58470;SDS011;44258;51.288;12.068;2023-03-14T10:09:22;3.67;;;0.75;;
58470;SDS011;44258;51.288;12.068;2023-03-14T10:11:52;1.35;;;0.60;;
58470;SDS011;44258;51.288;12.068;2023-03-14T10:14:28;4.68;;;0.82;;
58470;SDS011;44258;51.288;12.068;2023-03-14T10:19:31;1.13;;;0.40;;
58470;SDS011;44258;51.288;12.068;2023-03-14T10:22:00;2.78;;;0.43;;
58470;SDS011;44258;51.288;12.068;2023-03-14T10:24:31;1.05;;;0.47;;
58470;SDS011;44258;51.288;12.068;2023-03-14T10:27:00;0.95;;;0.50;;
58470;SDS011;44258;51.288;12.068;2023-03-14T10:29:33;2.40;;;0.50;;
58470;SDS011;44258;51.288;12.068;2023-03-14T10:32:01;2.78;;;0.60;;
58470;SDS011;44258;51.288;12.068;2023-03-14T10:34:30;0.50;;;0.32;;
58470;SDS011;44258;51.288;12.068;2023-03-14T10:36:59;2.75;;;0.60;;
58470;SDS011;44258;51.288;12.068;2023-03-14T10:39:37;2.22;;;0.50;;
58470;SDS011;44258;51.288;12.068;2023-03-14T10:42:13;0.40;;;0.30;;
58470;SDS011;44258;51.288;12.068;2023-03-14T10:44:45;0.80;;;0.30;;
58470;SDS011;44258;51.288;12.068;2023-03-14T10:47:23;1.77;;;0.60;;
58470;SDS011;44258;51.288;12.068;2023-03-14T10:49:53;4.03;;;0.73;;
58470;SDS011;44258;51.288;12.068;2023-03-14T10:52:21;0.63;;;0.50;;
58470;SDS011;44258;51.288;12.068;2023-03-14T10:54:54;1.17;;;0.20;;
58470;SDS011;44258;51.288;12.068;2023-03-14T10:57:24;0.68;;;0.30;;
58470;SDS011;44258;51.288;12.068;2023-03-14T10:59:52;2.03;;;0.40;;
58470;SDS011;44258;51.288;12.068;2023-03-14T11:02:43;1.63;;;0.52;;
58470;SDS011;44258;51.288;12.068;2023-03-14T11:05:23;1.63;;;0.30;;
58470;SDS011;44258;51.288;12.068;2023-03-14T11:07:58;2.13;;;0.70;;
58470;SDS011;44258;51.288;12.068;2023-03-14T11:10:31;3.25;;;0.50;;
58470;SDS011;44258;51.288;12.068;2023-03-14T11:13:06;1.10;;;0.50;;
58470;SDS011;44258;51.288;12.068;2023-03-14T11:15:43;0.50;;;0.30;;
58470;SDS011;44258;51.288;12.068;2023-03-14T11:18:24;1.02;;;0.47;;
58470;SDS011;44258;51.288;12.068;2023-03-14T11:21:19;0.52;;;0.30;;
58470;SDS011;44258;51.288;12.068;2023-03-14T11:23:54;1.75;;;0.22;;
58470;SDS011;44258;51.288;12.068;2023-03-14T11:26:36;2.08;;;0.38;;
58470;SDS011;44258;51.288;12.068;2023-03-14T11:29:12;2.08;;;0.40;;
58470;SDS011;44258;51.288;12.068;2023-03-14T11:31:46;0.75;;;0.40;;
58470;SDS011;44258;51.288;12.068;2023-03-14T11:34:15;0.77;;;0.20;;
58470;SDS011;44258;51.288;12.068;2023-03-14T11:36:46;0.70;;;0.38;;
58470;SDS011;44258;51.288;12.068;2023-03-14T11:39:20;1.25;;;0.60;;
58470;SDS011;44258;51.288;12.068;2023-03-14T11:41:49;1.35;;;0.40;;
58470;SDS011;44258;51.288;12.068;2023-03-14T11:44:22;0.52;;;0.40;;
58470;SDS011;44258;51.288;12.068;2023-03-14T11:46:55;0.35;;;0.20;;
58470;SDS011;44258;51.288;12.068;2023-03-14T11:49:30;1.63;;;0.20;;
58470;SDS011;44258;51.288;12.068;2023-03-14T11:52:05;2.17;;;0.32;;
58470;SDS011;44258;51.288;12.068;2023-03-14T11:54:37;1.75;;;0.32;;
58470;SDS011;44258;51.288;12.068;2023-03-14T11:57:11;1.00;;;0.40;;
58470;SDS011;44258;51.288;12.068;2023-03-14T11:59:45;1.13;;;0.30;;
58470;SDS011;44258;51.288;12.068;2023-03-14T12:02:17;1.93;;;0.40;;
58470;SDS011;44258;51.288;12.068;2023-03-14T12:04:53;1.20;;;0.30;;
58470;SDS011;44258;51.288;12.068;2023-03-14T12:07:34;1.17;;;0.28;;
58470;SDS011;44258;51.288;12.068;2023-03-14T12:10:08;0.23;;;0.23;;
58470;SDS011;44258;51.288;12.068;2023-03-14T12:12:40;0.30;;;0.20;;
58470;SDS011;44258;51.288;12.068;2023-03-14T12:15:18;0.52;;;0.20;;
58470;SDS011;44258;51.288;12.068;2023-03-14T12:17:46;0.32;;;0.22;;
58470;SDS011;44258;51.288;12.068;2023-03-14T12:20:19;0.43;;;0.20;;
58470;SDS011;44258;51.288;12.068;2023-03-14T12:22:47;0.52;;;0.20;;
58470;SDS011;44258;51.288;12.068;2023-03-14T12:25:18;0.45;;;0.22;;
58470;SDS011;44258;51.288;12.068;2023-03-14T12:30:46;0.55;;;0.20;;
58470;SDS011;44258;51.288;12.068;2023-03-14T12:36:00;0.50;;;0.40;;
58470;SDS011;44258;51.288;12.068;2023-03-14T12:38:37;0.25;;;0.20;;
58470;SDS011;44258;51.288;12.068;2023-03-14T12:41:14;0.60;;;0.20;;
58470;SDS011;44258;51.288;12.068;2023-03-14T12:43:44;1.50;;;0.20;;
58470;SDS011;44258;51.288;12.068;2023-03-14T12:46:22;0.45;;;0.40;;
58470;SDS011;44258;51.288;12.068;2023-03-14T12:48:54;0.10;;;0.10;;
58470;SDS011;44258;51.288;12.068;2023-03-14T12:51:28;0.50;;;0.20;;
58470;SDS011;44258;51.288;12.068;2023-03-14T12:56:56;0.85;;;0.40;;
58470;SDS011;44258;51.288;12.068;2023-03-14T12:59:45;0.30;;;0.20;;
58470;SDS011;44258;51.288;12.068;2023-03-14T13:04:49;0.35;;;0.20;;
58470;SDS011;44258;51.288;12.068;2023-03-14T13:07:35;0.60;;;0.30;;
58470;SDS011;44258;51.288;12.068;2023-03-14T13:10:25;1.92;;;0.47;;
58470;SDS011;44258;51.288;12.068;2023-03-14T13:12:55;0.20;;;0.10;;
58470;SDS011;44258;51.288;12.068;2023-03-14T13:15:27;0.68;;;0.28;;
58470;SDS011;44258;51.288;12.068;2023-03-14T13:18:01;1.55;;;0.80;;
58470;SDS011;44258;51.288;12.068;2023-03-14T13:20:31;0.45;;;0.40;;
58470;SDS011;44258;51.288;12.068;2023-03-14T13:23:01;1.45;;;0.43;;
58470;SDS011;44258;51.288;12.068;2023-03-14T13:25:29;0.85;;;0.50;;
58470;SDS011;44258;51.288;12.068;2023-03-14T13:27:58;1.70;;;0.43;;
58470;SDS011;44258;51.288;12.068;2023-03-14T13:30:26;0.52;;;0.30;;
58470;SDS011;44258;51.288;12.068;2023-03-14T13:32:55;2.80;;;0.70;;
58470;SDS011;44258;51.288;12.068;2023-03-14T13:35:24;1.27;;;0.40;;
58470;SDS011;44258;51.288;12.068;2023-03-14T13:37:58;0.82;;;0.50;;
58470;SDS011;44258;51.288;12.068;2023-03-14T13:40:28;0.65;;;0.35;;
58470;SDS011;44258;51.288;12.068;2023-03-14T13:43:04;0.50;;;0.30;;
58470;SDS011;44258;51.288;12.068;2023-03-14T13:45:44;1.95;;;0.47;;
58470;SDS011;44258;51.288;12.068;2023-03-14T13:48:18;1.40;;;0.50;;
58470;SDS011;44258;51.288;12.068;2023-03-14T13:50:48;1.75;;;0.40;;
58470;SDS011;44258;51.288;12.068;2023-03-14T13:53:20;0.65;;;0.40;;
58470;SDS011;44258;51.288;12.068;2023-03-14T13:55:46;0.45;;;0.30;;
58470;SDS011;44258;51.288;12.068;2023-03-14T13:58:19;1.73;;;0.40;;
58470;SDS011;44258;51.288;12.068;2023-03-14T14:00:58;1.13;;;0.50;;
58470;SDS011;44258;51.288;12.068;2023-03-14T14:03:29;1.38;;;0.55;;
58470;SDS011;44258;51.288;12.068;2023-03-14T14:05:59;0.52;;;0.40;;
58470;SDS011;44258;51.288;12.068;2023-03-14T14:08:27;1.40;;;0.50;;
58470;SDS011;44258;51.288;12.068;2023-03-14T14:10:55;0.55;;;0.40;;
58470;SDS011;44258;51.288;12.068;2023-03-14T14:13:26;0.40;;;0.40;;
58470;SDS011;44258;51.288;12.068;2023-03-14T14:15:59;1.20;;;0.68;;
58470;SDS011;44258;51.288;12.068;2023-03-14T14:18:28;0.98;;;0.63;;
58470;SDS011;44258;51.288;12.068;2023-03-14T14:21:00;1.00;;;0.50;;
58470;SDS011;44258;51.288;12.068;2023-03-14T14:23:27;0.43;;;0.40;;
58470;SDS011;44258;51.288;12.068;2023-03-14T14:25:57;2.13;;;0.60;;
58470;SDS011;44258;51.288;12.068;2023-03-14T14:28:26;0.77;;;0.63;;
58470;SDS011;44258;51.288;12.068;2023-03-14T14:31:02;1.58;;;0.60;;
58470;SDS011;44258;51.288;12.068;2023-03-14T14:33:38;0.45;;;0.38;;
58470;SDS011;44258;51.288;12.068;2023-03-14T14:36:13;0.80;;;0.40;;
58470;SDS011;44258;51.288;12.068;2023-03-14T14:38:48;0.88;;;0.50;;
58470;SDS011;44258;51.288;12.068;2023-03-14T14:41:16;1.13;;;0.50;;
58470;SDS011;44258;51.288;12.068;2023-03-14T14:43:45;1.08;;;0.60;;
58470;SDS011;44258;51.288;12.068;2023-03-14T14:46:14;1.67;;;0.68;;
58470;SDS011;44258;51.288;12.068;2023-03-14T14:48:45;1.40;;;0.70;;
58470;SDS011;44258;51.288;12.068;2023-03-14T14:51:23;1.30;;;0.60;;
58470;SDS011;44258;51.288;12.068;2023-03-14T14:54:02;2.08;;;0.65;;
58470;SDS011;44258;51.288;12.068;2023-03-14T14:56:37;4.50;;;1.40;;
58470;SDS011;44258;51.288;12.068;2023-03-14T14:59:04;2.95;;;0.63;;
58470;SDS011;44258;51.288;12.068;2023-03-14T15:01:33;2.67;;;0.65;;